KMPV 231851Z AUTO 23008G17KT 190V260 10SM CLR 24/17 A2975 RMK AO2 RAE01 SLP065 P0000 T02440167